createdAt,value
2019-03-05T00:02:01.553Z,100034.67
2019-03-05T00:04:30.103Z,100037.41
2019-03-05T00:06:58.722Z,100033.08
2019-03-05T00:09:27.236Z,100039.09
2019-03-05T00:11:55.852Z,100033.98
2019-03-05T00:14:24.492Z,100045.30
2019-03-05T00:16:53.166Z,100039.90
2019-03-05T00:19:21.786Z,100044.81
2019-03-05T00:21:50.447Z,100040.89
2019-03-05T00:24:55.459Z,100046.88
2019-03-05T00:27:24.264Z,100032.59
2019-03-05T00:29:58.274Z,100037.47
2019-03-05T00:32:26.984Z,100043.74
2019-03-05T00:35:18.899Z,100041.19
2019-03-05T00:37:50.491Z,100033.25
2019-03-05T00:40:34.258Z,100032.88
2019-03-05T00:43:08.709Z,100027.56
2019-03-05T00:45:46.061Z,100038.38
2019-03-05T00:48:44.598Z,100038.23
2019-03-05T00:51:43.343Z,100039.30
2019-03-05T00:54:20.673Z,100045.56
2019-03-05T00:57:25.705Z,100042.07
2019-03-05T01:00:09.288Z,100048.98
2019-03-05T01:02:53.042Z,100039.53
2019-03-05T01:05:50.117Z,100044.22
2019-03-05T01:08:19.786Z,100043.11
2019-03-05T01:10:48.428Z,100045.73
2019-03-05T01:13:17.022Z,100052.53
2019-03-05T01:15:45.627Z,100050.64
2019-03-05T01:18:14.524Z,100044.17
2019-03-05T01:20:43.082Z,100042.59
2019-03-05T01:23:11.603Z,100059.62
2019-03-05T01:25:40.397Z,100058.31
2019-03-05T01:28:09.042Z,100062.59
2019-03-05T01:31:02.965Z,100053.51
2019-03-05T01:33:33.135Z,100061.25
2019-03-05T01:36:06.408Z,100062.12
2019-03-05T01:38:45.646Z,100064.55
2019-03-05T01:41:14.393Z,100059.66
2019-03-05T01:43:42.996Z,100077.68
2019-03-05T01:46:11.532Z,100064.49
2019-03-05T01:48:40.114Z,100076.23
2019-03-05T01:51:08.796Z,100073.73
2019-03-05T01:53:37.266Z,100086.41
2019-03-05T01:56:05.872Z,100090.98
2019-03-05T01:58:34.311Z,100090.38
2019-03-05T02:01:03.006Z,100085.22
2019-03-05T02:03:31.573Z,100093.16
2019-03-05T02:06:00.151Z,100100.26
2019-03-05T02:08:28.762Z,100091.84
2019-03-05T02:10:57.400Z,100088.11
2019-03-05T02:13:26.017Z,100092.16
2019-03-05T02:15:54.624Z,100096.52
2019-03-05T02:18:26.130Z,100094.69
2019-03-05T02:20:55.641Z,100094.14
2019-03-05T02:23:36.007Z,100097.84
2019-03-05T02:26:25.904Z,100097.38
2019-03-05T02:29:03.447Z,100097.08
2019-03-05T02:31:43.768Z,100095.42
2019-03-05T02:34:30.347Z,100093.77
2019-03-05T02:37:23.212Z,100104.11
2019-03-05T02:40:20.204Z,100109.44
2019-03-05T02:43:03.532Z,100112.38
2019-03-05T02:45:44.081Z,100103.25
2019-03-05T02:48:44.723Z,100106.15
2019-03-05T02:51:18.910Z,100106.15
2019-03-05T02:54:08.503Z,100101.34
2019-03-05T02:56:43.107Z,100108.36
2019-03-05T02:59:10.438Z,100102.94
2019-03-05T03:01:55.939Z,100102.94
2019-03-05T03:04:26.205Z,100105.64
2019-03-05T03:06:54.853Z,100115.50
2019-03-05T03:09:32.493Z,100112.97
2019-03-05T03:12:01.083Z,100122.20
2019-03-05T03:14:29.721Z,100116.64
2019-03-05T03:17:17.436Z,100114.25
2019-03-05T03:19:46.038Z,100106.95
2019-03-05T03:22:14.625Z,100108.95
2019-03-05T03:24:43.248Z,100103.73
2019-03-05T03:27:12.070Z,100113.11
2019-03-05T03:29:40.815Z,100102.23
2019-03-05T03:32:10.411Z,100110.20
2019-03-05T03:34:39.180Z,100111.37
2019-03-05T03:37:07.779Z,100115.07
2019-03-05T03:39:36.343Z,100115.48
2019-03-05T03:42:05.160Z,100124.04
2019-03-05T03:44:33.793Z,100120.06
2019-03-05T03:47:02.292Z,100121.02
2019-03-05T03:49:30.921Z,100137.61
2019-03-05T03:51:59.423Z,100139.56
2019-03-05T03:54:27.990Z,100140.82
2019-03-05T03:56:56.613Z,100135.22
2019-03-05T03:59:25.182Z,100142.57
2019-03-05T04:01:53.804Z,100132.89
2019-03-05T04:04:22.370Z,100145.05
2019-03-05T04:06:51.264Z,100140.36
2019-03-05T04:09:19.874Z,100137.31
2019-03-05T04:11:48.462Z,100141.66
2019-03-05T04:14:17.089Z,100130.35
2019-03-05T04:16:45.851Z,100129.97
2019-03-05T04:19:16.112Z,100136.46
2019-03-05T04:21:44.712Z,100136.80
2019-03-05T04:24:13.290Z,100142.44
2019-03-05T04:26:41.829Z,100139.64
2019-03-05T04:29:10.467Z,100132.80
2019-03-05T04:31:40.287Z,100135.19
2019-03-05T04:34:08.843Z,100124.41
2019-03-05T04:36:37.324Z,100138.05
2019-03-05T04:39:08.892Z,100134.01
2019-03-05T04:41:37.437Z,100139.41
2019-03-05T04:44:05.971Z,100134.72
2019-03-05T04:46:35.281Z,100147.96
2019-03-05T04:49:08.474Z,100139.84
2019-03-05T04:51:44.554Z,100141.42
2019-03-05T04:54:13.241Z,100142.17
2019-03-05T04:56:41.834Z,100137.16
2019-03-05T04:59:10.850Z,100141.31
2019-03-05T05:01:39.446Z,100134.12
2019-03-05T05:04:08.051Z,100130.98
2019-03-05T05:06:36.624Z,100143.42
2019-03-05T05:09:07.232Z,100137.03
2019-03-05T05:11:35.803Z,100127.28
2019-03-05T05:14:04.414Z,100137.58
2019-03-05T05:16:33.116Z,100136.38
2019-03-05T05:19:01.695Z,100128.95
2019-03-05T05:21:30.282Z,100134.58
2019-03-05T05:23:58.867Z,100131.02
2019-03-05T05:26:27.447Z,100145.40
2019-03-05T05:28:55.960Z,100148.27
2019-03-05T05:31:24.710Z,100140.31
2019-03-05T05:33:53.152Z,100136.62
2019-03-05T05:36:21.708Z,100137.82
2019-03-05T05:38:50.276Z,100134.01
2019-03-05T05:41:18.886Z,100131.31
2019-03-05T05:43:47.475Z,100131.31
2019-03-05T05:46:16.104Z,100135.74
2019-03-05T05:48:44.567Z,100140.11
2019-03-05T05:51:13.106Z,100138.91
2019-03-05T05:53:41.605Z,100141.45
2019-03-05T05:56:10.802Z,100143.91
2019-03-05T05:58:39.395Z,100145.98
2019-03-05T06:01:09.634Z,100152.66
2019-03-05T06:03:38.243Z,100149.76
2019-03-05T06:06:06.939Z,100146.09
2019-03-05T06:08:35.446Z,100143.98
2019-03-05T06:11:04.080Z,100148.55
2019-03-05T06:13:32.719Z,100151.02
2019-03-05T06:16:01.248Z,100146.50
2019-03-05T06:18:29.779Z,100154.63
2019-03-05T06:20:58.400Z,100153.80
2019-03-05T06:23:26.954Z,100151.80
2019-03-05T06:25:55.687Z,100153.39
2019-03-05T06:28:24.266Z,100159.92
2019-03-05T06:30:53.151Z,100162.88
2019-03-05T06:33:22.003Z,100160.58
2019-03-05T06:35:50.387Z,100167.13
2019-03-05T06:38:19.022Z,100161.33
2019-03-05T06:40:47.633Z,100167.31
2019-03-05T06:43:16.237Z,100171.57
2019-03-05T06:45:44.743Z,100173.88
2019-03-05T06:48:13.290Z,100180.38
2019-03-05T06:50:41.804Z,100178.16
2019-03-05T06:53:11.024Z,100186.98
2019-03-05T06:55:39.567Z,100186.95
2019-03-05T06:58:08.229Z,100186.25
2019-03-05T07:00:42.536Z,100184.44
2019-03-05T07:03:11.270Z,100194.86
2019-03-05T07:06:16.630Z,100193.98
2019-03-05T07:08:56.699Z,100202.30
2019-03-05T07:11:47.876Z,100199.66
2019-03-05T07:14:34.799Z,100210.67
2019-03-05T07:17:09.176Z,100207.73
2019-03-05T07:19:43.664Z,100213.95
2019-03-05T07:22:24.020Z,100215.45
2019-03-05T07:24:52.591Z,100225.66
2019-03-05T07:27:26.754Z,100223.83
2019-03-05T07:29:57.856Z,100228.30
2019-03-05T07:32:26.481Z,100234.15
2019-03-05T07:34:55.109Z,100230.50
2019-03-05T07:37:23.691Z,100243.37
2019-03-05T07:39:52.318Z,100239.77
2019-03-05T07:42:20.817Z,100249.55
2019-03-05T07:44:49.375Z,100257.09
2019-03-05T07:47:17.875Z,100257.06
2019-03-05T07:49:46.409Z,100263.64
2019-03-05T07:52:14.871Z,100265.04
2019-03-05T07:54:43.337Z,100263.36
2019-03-05T07:57:11.869Z,100274.28
2019-03-05T07:59:41.212Z,100287.80
2019-03-05T08:02:09.911Z,100286.34
2019-03-05T08:04:38.498Z,100282.97
2019-03-05T08:07:07.151Z,100285.77
2019-03-05T08:09:39.018Z,100286.28
2019-03-05T08:12:31.707Z,100290.75
2019-03-05T08:15:21.637Z,100292.15
2019-03-05T08:17:50.143Z,100293.50
2019-03-05T08:20:18.753Z,100299.73
2019-03-05T08:22:47.354Z,100303.91
2019-03-05T08:25:15.945Z,100298.47
2019-03-05T08:27:44.516Z,100312.11
2019-03-05T08:30:17.791Z,100313.77
2019-03-05T08:32:46.364Z,100318.36
2019-03-05T08:35:14.980Z,100318.85
2019-03-05T08:37:43.573Z,100320.61
2019-03-05T08:40:14.180Z,100326.66
2019-03-05T08:42:42.876Z,100331.67
2019-03-05T08:45:14.465Z,100327.84
2019-03-05T08:47:43.154Z,100330.83
2019-03-05T08:50:15.677Z,100329.77
2019-03-05T08:52:44.297Z,100324.19
2019-03-05T08:55:13.295Z,100335.16
2019-03-05T08:57:41.896Z,100335.52
2019-03-05T09:00:16.878Z,100331.78
2019-03-05T09:02:48.801Z,100336.66
2019-03-05T09:05:17.631Z,100344.72
2019-03-05T09:07:46.322Z,100342.45
2019-03-05T09:10:17.730Z,100344.05
2019-03-05T09:12:47.165Z,100344.45
2019-03-05T09:15:19.696Z,100347.44
2019-03-05T09:17:48.685Z,100354.83
2019-03-05T09:20:21.260Z,100351.63
2019-03-05T09:22:49.885Z,100349.87
2019-03-05T09:25:19.387Z,100357.27
2019-03-05T09:27:47.991Z,100350.30
2019-03-05T09:30:21.385Z,100346.95
2019-03-05T09:32:50.093Z,100359.73
2019-03-05T09:35:18.736Z,100358.66
2019-03-05T09:37:47.715Z,100362.78
2019-03-05T09:40:22.012Z,100361.39
2019-03-05T09:42:50.899Z,100374.72
2019-03-05T09:45:20.882Z,100362.33
2019-03-05T09:47:49.622Z,100365.00
2019-03-05T09:50:19.261Z,100365.03
2019-03-05T09:52:54.874Z,100366.64
2019-03-05T09:55:26.629Z,100366.58
2019-03-05T09:58:06.984Z,100366.52
2019-03-05T10:00:30.477Z,100365.44
2019-03-05T10:02:59.062Z,100371.59
2019-03-05T10:05:27.772Z,100364.37
2019-03-05T10:07:56.400Z,100359.84
2019-03-05T10:10:29.882Z,100364.00
2019-03-05T10:13:03.724Z,100376.66
2019-03-05T10:15:29.761Z,100380.88
2019-03-05T10:17:58.368Z,100378.45
2019-03-05T10:20:29.240Z,100378.77
2019-03-05T10:22:59.666Z,100378.33
2019-03-05T10:25:28.871Z,100377.56
2019-03-05T10:27:58.068Z,100383.02
2019-03-05T10:30:28.716Z,100389.20
2019-03-05T10:33:00.443Z,100380.91
2019-03-05T10:35:29.294Z,100392.34
2019-03-05T10:38:00.958Z,100386.23
2019-03-05T10:40:38.538Z,100392.42
2019-03-05T10:43:09.294Z,100389.37
2019-03-05T10:45:39.250Z,100385.76
2019-03-05T10:48:07.838Z,100390.89
2019-03-05T10:50:36.460Z,100397.77
2019-03-05T10:53:05.474Z,100395.52
2019-03-05T10:55:34.186Z,100398.95
2019-03-05T10:58:02.960Z,100398.99
2019-03-05T11:00:37.761Z,100412.83
2019-03-05T11:03:06.549Z,100415.91
2019-03-05T11:05:37.561Z,100410.90
2019-03-05T11:08:06.963Z,100406.12
2019-03-05T11:10:36.371Z,100412.86
2019-03-05T11:13:04.953Z,100411.70
2019-03-05T11:15:35.338Z,100407.93
2019-03-05T11:18:06.892Z,100410.35
2019-03-05T11:20:35.661Z,100406.91
2019-03-05T11:23:05.173Z,100406.31
2019-03-05T11:25:33.859Z,100414.69
2019-03-05T11:28:03.773Z,100412.30
2019-03-05T11:30:36.599Z,100418.84
2019-03-05T11:33:05.560Z,100418.94
2019-03-05T11:35:35.014Z,100421.03
2019-03-05T11:38:03.932Z,100414.72
2019-03-05T11:40:34.186Z,100430.80
2019-03-05T11:43:14.098Z,100421.91
2019-03-05T11:45:44.503Z,100428.60
2019-03-05T11:48:13.702Z,100419.20
2019-03-05T11:50:42.465Z,100423.41
2019-03-05T11:53:12.094Z,100427.20
2019-03-05T11:55:40.723Z,100425.94
2019-03-05T11:58:09.352Z,100429.06
2019-03-05T12:00:57.794Z,100422.05
2019-03-05T12:03:26.324Z,100424.77
2019-03-05T12:05:54.942Z,100428.55
2019-03-05T12:08:23.620Z,100424.28
2019-03-05T12:10:52.219Z,100431.67
2019-03-05T12:13:21.198Z,100433.69
2019-03-05T12:15:50.122Z,100429.56
2019-03-05T12:18:18.641Z,100437.20
2019-03-05T12:20:47.284Z,100433.91
2019-03-05T12:23:15.942Z,100444.34
2019-03-05T12:25:44.626Z,100438.27
2019-03-05T12:28:13.258Z,100430.48
2019-03-05T12:30:42.170Z,100428.72
2019-03-05T12:33:12.479Z,100420.49
2019-03-05T12:35:42.108Z,100418.67
2019-03-05T12:38:10.767Z,100427.13
2019-03-05T12:40:39.494Z,100436.92
2019-03-05T12:43:08.104Z,100421.72
2019-03-05T12:45:36.715Z,100432.28
2019-03-05T12:48:05.475Z,100431.03
2019-03-05T12:50:36.433Z,100443.44
2019-03-05T12:53:06.589Z,100441.19
2019-03-05T12:55:35.241Z,100445.75
2019-03-05T12:58:03.831Z,100449.61
2019-03-05T13:00:34.705Z,100460.45
2019-03-05T13:03:03.728Z,100460.94
2019-03-05T13:05:32.333Z,100461.42
2019-03-05T13:08:00.842Z,100451.54
2019-03-05T13:10:35.976Z,100451.54
2019-03-05T13:13:03.979Z,100462.72
2019-03-05T13:15:34.705Z,100461.55
2019-03-05T13:18:03.594Z,100464.15
2019-03-05T13:20:32.167Z,100467.22
2019-03-05T13:23:00.788Z,100467.22
2019-03-05T13:25:29.953Z,100475.42
2019-03-05T13:28:02.297Z,100466.84
2019-03-05T13:30:30.285Z,100465.65
2019-03-05T13:33:00.645Z,100468.94
2019-03-05T13:35:30.754Z,100463.59
2019-03-05T13:38:07.631Z,100459.42
2019-03-05T13:40:38.561Z,100465.69
2019-03-05T13:43:06.750Z,100469.64
2019-03-05T13:45:35.572Z,100478.52
2019-03-05T13:48:07.657Z,100479.69
2019-03-05T13:50:48.111Z,100478.55
2019-03-05T13:53:59.956Z,100487.86
2019-03-05T13:56:45.739Z,100486.67
2019-03-05T13:59:33.880Z,100490.05
2019-03-05T14:02:02.458Z,100488.25
2019-03-05T14:04:36.820Z,100501.37
2019-03-05T14:07:14.029Z,100506.31
2019-03-05T14:09:41.271Z,100505.89
2019-03-05T14:12:09.969Z,100508.73
2019-03-05T14:14:38.628Z,100496.97
2019-03-05T14:17:11.753Z,100510.97
2019-03-05T14:19:40.370Z,100515.59
2019-03-05T14:22:08.955Z,100514.01
2019-03-05T14:24:37.554Z,100510.15
2019-03-05T14:27:06.261Z,100517.34
2019-03-05T14:29:34.858Z,100513.92
2019-03-05T14:32:03.476Z,100517.41
2019-03-05T14:34:32.150Z,100516.48
2019-03-05T14:37:00.625Z,100520.42
2019-03-05T14:39:32.659Z,100529.66
2019-03-05T14:42:02.146Z,100524.78
2019-03-05T14:44:39.357Z,100521.34
2019-03-05T14:47:03.517Z,100529.88
2019-03-05T14:49:32.134Z,100519.05
2019-03-05T14:52:00.726Z,100533.07
2019-03-05T14:54:29.430Z,100537.19
2019-03-05T14:56:57.934Z,100531.28
2019-03-05T14:59:26.797Z,100533.21
2019-03-05T15:01:55.334Z,100526.06
2019-03-05T15:04:23.870Z,100527.20
2019-03-05T15:06:52.464Z,100539.99
2019-03-05T15:09:21.408Z,100541.86
2019-03-05T15:11:50.134Z,100548.38
2019-03-05T15:14:18.832Z,100553.95
2019-03-05T15:16:47.503Z,100553.73
2019-03-05T15:19:21.438Z,100542.60
2019-03-05T15:21:46.389Z,100542.60
2019-03-05T15:24:15.082Z,100543.37
2019-03-05T15:26:43.728Z,100554.88
2019-03-05T15:29:12.617Z,100555.09
2019-03-05T15:31:41.339Z,100557.28
2019-03-05T15:34:10.016Z,100551.67
2019-03-05T15:36:38.594Z,100554.63
2019-03-05T15:39:07.765Z,100555.94
2019-03-05T15:41:36.380Z,100555.03
2019-03-05T15:44:05.005Z,100554.25
2019-03-05T15:46:33.641Z,100559.39
2019-03-05T15:49:02.126Z,100562.11
2019-03-05T15:51:30.849Z,100555.37
2019-03-05T15:53:59.479Z,100563.63
2019-03-05T15:56:28.146Z,100567.94
2019-03-05T15:58:56.800Z,100566.16
2019-03-05T16:01:25.391Z,100572.94
2019-03-05T16:03:54.009Z,100571.92
2019-03-05T16:06:22.661Z,100573.85
2019-03-05T16:08:51.291Z,100572.44
2019-03-05T16:11:19.983Z,100578.42
2019-03-05T16:13:52.360Z,100577.23
2019-03-05T16:16:19.416Z,100581.16
2019-03-05T16:18:48.041Z,100584.38
2019-03-05T16:21:16.667Z,100587.23
2019-03-05T16:23:45.210Z,100588.00
2019-03-05T16:26:13.934Z,100588.39
2019-03-05T16:28:43.511Z,100586.41
2019-03-05T16:31:14.332Z,100589.14
2019-03-05T16:33:45.786Z,100593.86
2019-03-05T16:36:29.190Z,100590.58
2019-03-05T16:39:04.940Z,100597.45
2019-03-05T16:41:37.841Z,100593.94
2019-03-05T16:44:24.561Z,100609.91
2019-03-05T16:46:57.898Z,100598.65
2019-03-05T16:49:34.323Z,100613.59
2019-03-05T16:52:19.496Z,100615.11
2019-03-05T16:54:52.319Z,100617.74
2019-03-05T16:57:40.846Z,100615.03
2019-03-05T17:00:14.344Z,100619.11
2019-03-05T17:02:47.144Z,100621.13
2019-03-05T17:05:26.406Z,100627.65
2019-03-05T17:08:05.526Z,100628.95
2019-03-05T17:10:35.748Z,100633.26
2019-03-05T17:13:04.657Z,100637.42
2019-03-05T17:15:33.302Z,100632.52
2019-03-05T17:18:01.895Z,100638.98
2019-03-05T17:20:30.475Z,100652.23
2019-03-05T17:22:59.093Z,100652.78
2019-03-05T17:25:27.657Z,100658.58
2019-03-05T17:27:56.259Z,100660.34
2019-03-05T17:30:24.973Z,100655.94
2019-03-05T17:32:53.548Z,100646.77
2019-03-05T17:35:22.554Z,100654.59
2019-03-05T17:37:51.214Z,100659.77
2019-03-05T17:40:19.685Z,100664.16
2019-03-05T17:42:50.138Z,100666.61
2019-03-05T17:45:22.959Z,100672.20
2019-03-05T17:47:51.689Z,100674.97
2019-03-05T17:50:20.214Z,100678.95
2019-03-05T17:52:48.831Z,100687.78
2019-03-05T17:55:25.275Z,100681.05
2019-03-05T17:57:52.766Z,100690.70
2019-03-05T18:00:33.009Z,100689.69
2019-03-05T18:03:01.659Z,100687.30
2019-03-05T18:05:31.800Z,100694.44
2019-03-05T18:08:00.410Z,100697.78
2019-03-05T18:10:29.107Z,100698.11
2019-03-05T18:12:57.722Z,100700.63
2019-03-05T18:15:28.818Z,100699.34
2019-03-05T18:17:56.700Z,100710.50
2019-03-05T18:20:25.313Z,100708.59
2019-03-05T18:22:53.973Z,100708.95
2019-03-05T18:25:22.560Z,100715.41
2019-03-05T18:27:51.177Z,100714.85
2019-03-05T18:30:29.622Z,100719.03
2019-03-05T18:32:58.560Z,100726.38
2019-03-05T18:35:27.168Z,100731.84
2019-03-05T18:37:55.779Z,100731.84
2019-03-05T18:40:26.315Z,100737.66
2019-03-05T18:42:54.910Z,100740.61
2019-03-05T18:45:27.948Z,100739.05
2019-03-05T18:47:56.730Z,100738.65
2019-03-05T18:50:25.459Z,100739.77
2019-03-05T18:52:56.292Z,100742.23
2019-03-05T18:55:25.699Z,100752.40
2019-03-05T18:57:54.719Z,100748.87
2019-03-05T19:00:28.893Z,100748.64
2019-03-05T19:03:05.572Z,100749.87
2019-03-05T19:05:35.110Z,100752.09
2019-03-05T19:08:04.530Z,100756.51
2019-03-05T19:10:33.160Z,100753.63
2019-03-05T19:13:01.833Z,100757.25
2019-03-05T19:15:31.033Z,100755.66
2019-03-05T19:17:59.891Z,100759.72
2019-03-05T19:20:30.514Z,100765.48
2019-03-05T19:22:59.963Z,100765.80
2019-03-05T19:25:30.179Z,100766.11
2019-03-05T19:27:58.793Z,100768.13
2019-03-05T19:30:30.323Z,100767.22
2019-03-05T19:32:58.943Z,100769.69
2019-03-05T19:35:27.633Z,100766.84
2019-03-05T19:37:56.273Z,100773.44
2019-03-05T19:40:39.198Z,100779.17
2019-03-05T19:43:08.026Z,100785.91
2019-03-05T19:45:36.799Z,100784.23
2019-03-05T19:48:05.990Z,100783.13
2019-03-05T19:50:34.611Z,100790.86
2019-03-05T19:53:03.214Z,100789.56
2019-03-05T19:55:31.810Z,100786.48
2019-03-05T19:58:10.210Z,100785.94
2019-03-05T20:00:43.020Z,100792.86
2019-03-05T20:03:13.224Z,100787.91
2019-03-05T20:05:41.844Z,100795.38
2019-03-05T20:08:10.354Z,100795.38
2019-03-05T20:10:39.285Z,100795.81
2019-03-05T20:13:07.898Z,100787.30
2019-03-05T20:15:36.465Z,100786.36
2019-03-05T20:18:07.193Z,100795.16
2019-03-05T20:20:35.440Z,100787.47
2019-03-05T20:23:03.985Z,100784.52
2019-03-05T20:25:33.050Z,100789.68
2019-03-05T20:28:01.624Z,100794.88
2019-03-05T20:30:30.322Z,100798.59
2019-03-05T20:32:58.987Z,100794.30
2019-03-05T20:35:27.558Z,100789.77
2019-03-05T20:37:56.175Z,100792.05
2019-03-05T20:40:26.676Z,100784.36
2019-03-05T20:42:55.289Z,100792.73
2019-03-05T20:45:31.917Z,100788.79
2019-03-05T20:48:00.532Z,100796.54
2019-03-05T20:50:29.202Z,100785.47
2019-03-05T20:52:57.817Z,100792.48
2019-03-05T20:55:27.688Z,100791.28
2019-03-05T20:57:56.308Z,100796.75
2019-03-05T21:00:29.608Z,100806.92
2019-03-05T21:02:59.996Z,100794.67
2019-03-05T21:05:30.981Z,100805.16
2019-03-05T21:07:59.617Z,100800.43
2019-03-05T21:10:28.209Z,100802.70
2019-03-05T21:12:56.833Z,100795.58
2019-03-05T21:15:25.806Z,100795.58
2019-03-05T21:17:55.328Z,100791.50
2019-03-05T21:20:23.973Z,100791.50
2019-03-05T21:22:52.567Z,100792.19
2019-03-05T21:25:21.479Z,100791.14
2019-03-05T21:27:50.092Z,100795.45
2019-03-05T21:30:27.340Z,100796.05
2019-03-05T21:32:56.029Z,100791.75
2019-03-05T21:35:24.572Z,100793.66
2019-03-05T21:37:53.474Z,100792.61
2019-03-05T21:40:27.418Z,100793.84
2019-03-05T21:42:56.150Z,100794.75
2019-03-05T21:45:39.250Z,100793.70
2019-03-05T21:48:07.867Z,100799.42
2019-03-05T21:50:36.547Z,100795.61
2019-03-05T21:53:05.732Z,100805.15
2019-03-05T21:55:34.306Z,100805.51
2019-03-05T21:58:02.943Z,100808.59
2019-03-05T22:00:35.981Z,100811.31
2019-03-05T22:03:05.282Z,100804.25
2019-03-05T22:05:34.539Z,100809.16
2019-03-05T22:08:03.147Z,100807.69
2019-03-05T22:10:31.778Z,100803.30
2019-03-05T22:13:00.413Z,100803.22
2019-03-05T22:15:34.023Z,100801.59
2019-03-05T22:18:02.585Z,100799.42
2019-03-05T22:20:31.398Z,100801.09
2019-03-05T22:23:00.395Z,100795.44
2019-03-05T22:25:29.363Z,100791.88
2019-03-05T22:27:58.252Z,100791.55
2019-03-05T22:30:32.071Z,100785.82
2019-03-05T22:33:00.651Z,100784.55
2019-03-05T22:35:29.276Z,100791.61
2019-03-05T22:37:57.997Z,100796.16
2019-03-05T22:40:27.924Z,100796.88
2019-03-05T22:42:56.552Z,100794.42
2019-03-05T22:45:30.019Z,100785.12
2019-03-05T22:47:58.648Z,100782.66
2019-03-05T22:50:27.236Z,100779.95
2019-03-05T22:52:55.937Z,100777.75
2019-03-05T22:55:24.542Z,100780.45
2019-03-05T22:57:53.134Z,100779.66
2019-03-05T23:00:31.794Z,100774.48
2019-03-05T23:03:01.480Z,100768.80
2019-03-05T23:05:30.191Z,100771.91
2019-03-05T23:07:58.889Z,100767.14
2019-03-05T23:10:27.468Z,100764.78
2019-03-05T23:12:56.294Z,100770.68
2019-03-05T23:15:25.028Z,100774.06
2019-03-05T23:17:53.727Z,100770.09
2019-03-05T23:20:22.388Z,100774.16
2019-03-05T23:22:51.056Z,100774.16
2019-03-05T23:25:20.608Z,100766.13
2019-03-05T23:27:49.273Z,100762.56
2019-03-05T23:30:20.342Z,100768.50
2019-03-05T23:32:53.511Z,100755.22
2019-03-05T23:35:22.326Z,100754.20
2019-03-05T23:37:50.981Z,100755.21
2019-03-05T23:40:19.911Z,100745.09
2019-03-05T23:42:48.658Z,100741.55
2019-03-05T23:45:18.544Z,100742.23
2019-03-05T23:47:47.277Z,100743.44
2019-03-05T23:50:16.571Z,100747.09
2019-03-05T23:52:45.382Z,100741.55
2019-03-05T23:55:14.756Z,100746.16
2019-03-05T23:57:43.945Z,100746.31
